sim
Sign-in with your pilot id or email,
or register
Callsign
Passwort

Schedule Details

Flight Number: DLH1760 (2)
Departure: Munich Airport (EDDM) at 10:10
Arrival: Larnaca International Airport (LCLK) at 13:25
Route: Lufthansa Passenger Schedule. Enter filed route here before submitting Pirep.

Weather Information
Getting current METAR information for EDDM 230950Z 25009KT 5000 -SHRA FEW007 FEW015CB BKN025 15/14 Q1010 RESHRA NOSIG
Getting current METAR information for LCLK 230930Z 14009KT 110V170 9999 FEW030 31/23 Q1012 NOSIG

Schedule Frequency

Route Map